Time;durP1;ratioP1;P1;durP2;ratioP2;P2;SDS_P1;SDS_P2;PMS_P1;PMS_P2;Temp;Humidity;BMP_temperature;BMP_pressure;BME280_temperature;BME280_humidity;BME280_pressure;Samples;Min_cycle;Max_cycle;Signal;HPM_P1;HPM_P2
2022/05/28 00:00:42;;;;;;;0.10;0.10;;;;;;;;;;6253461;22;20011;-88
2022/05/28 00:03:08;;;;;;;0.10;0.10;;;;;;;;;;6228007;22;20221;-89
2022/05/28 00:05:34;;;;;;;0.10;0.10;;;;;;;;;;6253453;22;20175;-90
2022/05/28 00:08:01;;;;;;;0.10;0.10;;;;;;;;;;6228342;22;20558;-88
2022/05/28 00:10:27;;;;;;;0.10;0.10;;;;;;;;;;6228361;22;20033;-88
2022/05/28 00:12:54;;;;;;;0.10;0.10;;;;;;;;;;6228276;22;20015;-89
2022/05/28 00:15:20;;;;;;;0.10;0.10;;;;;;;;;;6228439;22;20015;-89
2022/05/28 00:17:47;;;;;;;0.08;0.08;;;;;;;;;;6253346;22;20080;-88
2022/05/28 00:20:13;;;;;;;0.10;0.10;;;;;;;;;;6228089;22;20061;-88
2022/05/28 00:22:39;;;;;;;0.10;0.10;;;;;;;;;;6228074;22;20448;-87
2022/05/28 00:25:06;;;;;;;0.10;0.10;;;;;;;;;;6228228;22;20041;-88
2022/05/28 00:27:32;;;;;;;0.20;0.20;;;;;;;;;;6228424;22;20018;-88
2022/05/28 00:29:58;;;;;;;0.10;0.10;;;;;;;;;;6253212;22;20011;-88
2022/05/28 00:32:25;;;;;;;0.10;0.10;;;;;;;;;;6227960;22;20026;-88
2022/05/28 00:34:51;;;;;;;0.10;0.10;;;;;;;;;;6253377;22;20015;-89
2022/05/28 00:37:18;;;;;;;0.47;0.47;;;;;;;;;;6228017;22;20022;-88
2022/05/28 00:39:44;;;;;;;0.10;0.10;;;;;;;;;;6228739;22;20145;-88
2022/05/28 00:42:10;;;;;;;0.10;0.10;;;;;;;;;;6254969;22;20065;-88
2022/05/28 00:44:36;;;;;;;0.10;0.10;;;;;;;;;;6255272;22;20019;-88
2022/05/28 00:47:02;;;;;;;0.10;0.10;;;;;;;;;;6280669;22;20329;-89
2022/05/28 00:49:29;;;;;;;0.20;0.20;;;;;;;;;;6229905;22;20515;-88
2022/05/28 00:51:55;;;;;;;0.10;0.10;;;;;;;;;;6255128;22;20072;-88
2022/05/28 00:54:21;;;;;;;0.10;0.10;;;;;;;;;;6229637;22;20011;-88
2022/05/28 00:56:47;;;;;;;0.43;0.25;;;;;;;;;;6229856;22;20014;-89
2022/05/28 00:59:13;;;;;;;0.77;0.73;;;;;;;;;;6229533;22;20020;-89
2022/05/28 01:01:41;;;;;;;0.10;0.10;;;;;;;;;;6229695;22;20011;-88
2022/05/28 01:04:10;;;;;;;0.10;0.10;;;;;;;;;;6230073;22;20508;-88
2022/05/28 01:06:51;;;;;;;0.10;0.10;;;;;;;;;;6254919;22;20030;-89
2022/05/28 01:09:29;;;;;;;0.10;0.10;;;;;;;;;;6254961;22;20432;-87
2022/05/28 01:12:13;;;;;;;0.10;0.10;;;;;;;;;;6254742;22;20015;-88
2022/05/28 01:14:54;;;;;;;0.13;0.13;;;;;;;;;;6254638;22;20091;-87
2022/05/28 01:17:32;;;;;;;0.10;0.10;;;;;;;;;;6254933;22;20018;-88
2022/05/28 01:19:58;;;;;;;0.10;0.10;;;;;;;;;;6254916;22;20444;-90
2022/05/28 01:22:36;;;;;;;0.10;0.10;;;;;;;;;;6254615;22;20026;-90
2022/05/28 01:25:15;;;;;;;0.10;0.10;;;;;;;;;;6229667;22;20011;-90
2022/05/28 01:27:46;;;;;;;0.10;0.10;;;;;;;;;;6255120;22;20008;-90
2022/05/28 01:30:13;;;;;;;0.35;0.13;;;;;;;;;;6229598;22;20052;-89
2022/05/28 01:32:39;;;;;;;0.10;0.10;;;;;;;;;;6229685;22;20022;-89
2022/05/28 01:35:08;;;;;;;0.10;0.10;;;;;;;;;;6254949;22;20073;-88
2022/05/28 01:37:34;;;;;;;0.10;0.10;;;;;;;;;;6229467;22;20459;-89
2022/05/28 01:40:00;;;;;;;0.10;0.10;;;;;;;;;;6229619;22;20022;-87
2022/05/28 01:42:26;;;;;;;0.10;0.10;;;;;;;;;;6254284;22;20022;-87
2022/05/28 01:44:52;;;;;;;0.10;0.10;;;;;;;;;;6229187;22;20012;-87
2022/05/28 01:47:18;;;;;;;0.10;0.10;;;;;;;;;;6229166;22;20008;-88
2022/05/28 01:49:45;;;;;;;0.10;0.10;;;;;;;;;;6229160;22;20015;-87
2022/05/28 01:52:11;;;;;;;0.10;0.10;;;;;;;;;;6254508;22;20015;-88
2022/05/28 01:54:39;;;;;;;0.10;0.10;;;;;;;;;;6229454;22;20073;-89
2022/05/28 01:57:05;;;;;;;0.10;0.10;;;;;;;;;;6254746;22;20016;-89
2022/05/28 01:59:33;;;;;;;0.10;0.10;;;;;;;;;;6228981;22;20264;-87
2022/05/28 02:01:59;;;;;;;0.10;0.10;;;;;;;;;;6229279;22;20060;-88
2022/05/28 02:04:25;;;;;;;0.10;0.10;;;;;;;;;;6228906;22;20014;-89
2022/05/28 02:06:51;;;;;;;0.10;0.10;;;;;;;;;;6254412;22;20038;-89
2022/05/28 02:09:18;;;;;;;0.10;0.10;;;;;;;;;;6254164;22;20043;-87
2022/05/28 02:12:00;;;;;;;0.10;0.10;;;;;;;;;;6254273;22;20011;-87
2022/05/28 02:14:26;;;;;;;0.10;0.10;;;;;;;;;;6253853;22;20082;-87
2022/05/28 02:16:56;;;;;;;0.10;0.10;;;;;;;;;;6254123;22;20007;-88
2022/05/28 02:19:22;;;;;;;0.10;0.10;;;;;;;;;;6253883;22;20007;-87
2022/05/28 02:21:50;;;;;;;0.10;0.10;;;;;;;;;;6279670;22;20497;-88
2022/05/28 02:24:18;;;;;;;0.10;0.10;;;;;;;;;;6228731;22;20011;-87
2022/05/28 02:26:47;;;;;;;0.35;0.35;;;;;;;;;;6228794;22;20011;-87
2022/05/28 02:29:14;;;;;;;0.10;0.10;;;;;;;;;;6254187;22;20348;-88
2022/05/28 02:31:42;;;;;;;0.10;0.10;;;;;;;;;;6228844;22;20011;-87
2022/05/28 02:34:09;;;;;;;0.10;0.10;;;;;;;;;;6228993;22;20023;-88
2022/05/28 02:36:35;;;;;;;0.10;0.10;;;;;;;;;;6279832;22;20021;-88
2022/05/28 02:39:01;;;;;;;0.10;0.10;;;;;;;;;;6228912;22;20094;-88
2022/05/28 02:41:27;;;;;;;0.10;0.10;;;;;;;;;;6253832;22;20011;-88
2022/05/28 02:43:53;;;;;;;0.10;0.10;;;;;;;;;;6253793;22;20037;-88
2022/05/28 02:46:19;;;;;;;0.10;0.10;;;;;;;;;;6228648;22;20448;-87
2022/05/28 02:48:45;;;;;;;0.10;0.10;;;;;;;;;;6253827;22;20501;-88
2022/05/28 02:51:16;;;;;;;0.25;0.25;;;;;;;;;;6253905;22;20317;-88
2022/05/28 02:53:42;;;;;;;0.20;0.20;;;;;;;;;;6228789;22;20432;-89
2022/05/28 02:56:08;;;;;;;0.10;0.10;;;;;;;;;;6254029;22;20011;-89
2022/05/28 02:58:34;;;;;;;0.10;0.10;;;;;;;;;;6253833;22;20349;-90
2022/05/28 03:01:16;;;;;;;0.10;0.10;;;;;;;;;;6254693;22;20508;-91
2022/05/28 03:03:42;;;;;;;0.10;0.10;;;;;;;;;;6227832;22;20011;-89
2022/05/28 03:06:08;;;;;;;0.10;0.10;;;;;;;;;;6253701;22;20371;-88
2022/05/28 03:08:35;;;;;;;0.10;0.10;;;;;;;;;;6253698;22;20015;-88
2022/05/28 03:11:01;;;;;;;0.10;0.10;;;;;;;;;;6228602;22;20136;-87
2022/05/28 03:13:27;;;;;;;0.10;0.10;;;;;;;;;;6228399;22;20061;-84
2022/05/28 03:15:53;;;;;;;0.10;0.10;;;;;;;;;;6279009;22;20015;-84
2022/05/28 03:18:19;;;;;;;0.10;0.10;;;;;;;;;;6253583;22;20043;-85
2022/05/28 03:20:45;;;;;;;0.10;0.10;;;;;;;;;;6253820;22;20035;-85
2022/05/28 03:23:13;;;;;;;0.10;0.10;;;;;;;;;;6279178;22;20023;-86
2022/05/28 03:25:39;;;;;;;0.10;0.10;;;;;;;;;;6253686;22;20440;-85
2022/05/28 03:28:05;;;;;;;0.10;0.10;;;;;;;;;;6254278;22;20031;-85
2022/05/28 03:30:31;;;;;;;0.10;0.10;;;;;;;;;;6228474;22;20022;-86
2022/05/28 03:32:57;;;;;;;0.10;0.10;;;;;;;;;;6228151;22;20317;-86
2022/05/28 03:35:23;;;;;;;0.10;0.10;;;;;;;;;;6279063;22;20011;-85
2022/05/28 03:37:48;;;;;;;0.10;0.10;;;;;;;;;;6253239;22;20019;-85
2022/05/28 03:40:14;;;;;;;0.10;0.10;;;;;;;;;;6253729;22;20015;-87
2022/05/28 03:42:40;;;;;;;0.10;0.10;;;;;;;;;;6228191;22;20026;-87
2022/05/28 03:45:06;;;;;;;0.10;0.10;;;;;;;;;;6253683;22;20504;-86
2022/05/28 03:47:32;;;;;;;0.10;0.10;;;;;;;;;;6228034;22;20340;-86
2022/05/28 03:49:58;;;;;;;0.10;0.10;;;;;;;;;;6228159;22;20440;-86
2022/05/28 03:52:24;;;;;;;0.10;0.10;;;;;;;;;;6253349;22;20007;-86
2022/05/28 03:54:51;;;;;;;0.10;0.10;;;;;;;;;;6228160;22;20015;-87
2022/05/28 03:57:24;;;;;;;0.10;0.10;;;;;;;;;;6253272;22;20086;-87
2022/05/28 03:59:50;;;;;;;0.10;0.10;;;;;;;;;;6227860;22;20022;-87
2022/05/28 04:02:16;;;;;;;0.10;0.10;;;;;;;;;;6228065;22;20008;-86
2022/05/28 04:04:42;;;;;;;0.10;0.10;;;;;;;;;;6253294;22;20072;-86
2022/05/28 04:07:08;;;;;;;0.10;0.10;;;;;;;;;;6228110;22;20012;-86
2022/05/28 04:09:34;;;;;;;0.10;0.10;;;;;;;;;;6228252;22;20383;-86
2022/05/28 04:12:00;;;;;;;0.10;0.10;;;;;;;;;;6228209;22;20153;-85
2022/05/28 04:14:26;;;;;;;0.10;0.10;;;;;;;;;;6279955;22;20332;-85
2022/05/28 04:16:52;;;;;;;0.10;0.10;;;;;;;;;;6255426;22;20018;-85
2022/05/28 04:19:20;;;;;;;0.10;0.10;;;;;;;;;;6255163;22;20026;-86
2022/05/28 04:21:47;;;;;;;0.10;0.10;;;;;;;;;;6230417;22;20018;-87
2022/05/28 04:24:14;;;;;;;0.10;0.10;;;;;;;;;;6255345;22;20011;-87
2022/05/28 04:26:42;;;;;;;0.10;0.10;;;;;;;;;;6255260;22;20015;-87
2022/05/28 04:29:08;;;;;;;0.10;0.10;;;;;;;;;;6280782;22;20007;-85
2022/05/28 04:31:34;;;;;;;0.10;0.10;;;;;;;;;;6280616;22;20011;-86
2022/05/28 04:34:00;;;;;;;0.10;0.10;;;;;;;;;;6229841;22;20138;-86
2022/05/28 04:36:26;;;;;;;0.10;0.10;;;;;;;;;;6230026;22;20089;-86
2022/05/28 04:38:52;;;;;;;0.45;0.30;;;;;;;;;;6255441;22;20407;-86
2022/05/28 04:41:18;;;;;;;0.10;0.10;;;;;;;;;;6255279;22;20136;-86
2022/05/28 04:43:44;;;;;;;0.10;0.10;;;;;;;;;;6280237;22;20026;-86
2022/05/28 04:46:10;;;;;;;0.10;0.10;;;;;;;;;;6229961;22;20519;-87
2022/05/28 04:48:36;;;;;;;0.10;0.10;;;;;;;;;;6255259;22;20007;-86
2022/05/28 04:51:02;;;;;;;0.10;0.10;;;;;;;;;;6255140;22;20015;-86
2022/05/28 04:53:28;;;;;;;0.10;0.10;;;;;;;;;;6280347;22;20011;-86
2022/05/28 04:55:54;;;;;;;0.10;0.10;;;;;;;;;;6280276;22;20026;-87
2022/05/28 04:58:20;;;;;;;0.10;0.10;;;;;;;;;;6255166;22;20343;-87
2022/05/28 05:00:46;;;;;;;1.20;0.47;;;;;;;;;;6280224;22;20015;-87
2022/05/28 05:03:12;;;;;;;0.57;0.57;;;;;;;;;;6229379;22;20026;-88
2022/05/28 05:05:38;;;;;;;0.10;0.10;;;;;;;;;;6254806;22;20015;-86
2022/05/28 05:08:04;;;;;;;0.10;0.10;;;;;;;;;;6229633;22;20011;-88
2022/05/28 05:10:30;;;;;;;0.10;0.10;;;;;;;;;;6229632;22;20015;-87
2022/05/28 05:12:56;;;;;;;0.10;0.10;;;;;;;;;;6254771;22;20034;-87
2022/05/28 05:15:22;;;;;;;0.10;0.10;;;;;;;;;;6229629;22;20090;-87
2022/05/28 05:17:48;;;;;;;0.45;0.15;;;;;;;;;;6229713;22;20015;-88
2022/05/28 05:20:15;;;;;;;0.30;0.30;;;;;;;;;;6229323;22;20021;-87
2022/05/28 05:22:42;;;;;;;0.10;0.10;;;;;;;;;;6229429;22;20361;-87
2022/05/28 05:25:09;;;;;;;0.10;0.10;;;;;;;;;;6229193;22;20018;-86
2022/05/28 05:27:35;;;;;;;0.28;0.20;;;;;;;;;;6254798;22;20011;-86
2022/05/28 05:30:01;;;;;;;0.10;0.10;;;;;;;;;;6229284;22;20090;-86
2022/05/28 05:32:27;;;;;;;0.10;0.10;;;;;;;;;;6254583;22;20016;-86
2022/05/28 05:34:53;;;;;;;0.20;0.20;;;;;;;;;;6229333;22;20011;-87
2022/05/28 05:37:19;;;;;;;0.10;0.10;;;;;;;;;;6280123;22;20018;-86
2022/05/28 05:39:45;;;;;;;0.10;0.10;;;;;;;;;;6254654;22;20011;-90
2022/05/28 05:42:11;;;;;;;0.10;0.10;;;;;;;;;;6229140;22;20022;-91
2022/05/28 05:44:38;;;;;;;0.10;0.10;;;;;;;;;;6229900;22;20015;-90
2022/05/28 05:47:04;;;;;;;0.10;0.10;;;;;;;;;;6229334;22;20022;-90
2022/05/28 05:49:30;;;;;;;0.10;0.10;;;;;;;;;;6229551;22;20332;-90
2022/05/28 05:51:56;;;;;;;0.10;0.10;;;;;;;;;;6228805;22;20042;-91
2022/05/28 05:54:24;;;;;;;0.10;0.10;;;;;;;;;;6229890;22;20011;-93
2022/05/28 05:56:50;;;;;;;0.20;0.20;;;;;;;;;;6230260;22;20373;-92
2022/05/28 05:59:16;;;;;;;0.10;0.10;;;;;;;;;;6230442;22;20011;-93
2022/05/28 06:01:42;;;;;;;0.10;0.10;;;;;;;;;;6230520;22;20015;-92
2022/05/28 06:04:09;;;;;;;0.17;0.17;;;;;;;;;;6230823;22;20014;-96
2022/05/28 06:06:38;;;;;;;0.10;0.10;;;;;;;;;;6231739;22;20008;-91
2022/05/28 06:09:05;;;;;;;0.10;0.10;;;;;;;;;;6295686;22;20011;-89
2022/05/28 06:11:31;;;;;;;0.10;0.10;;;;;;;;;;6255192;22;20015;-90
2022/05/28 06:13:57;;;;;;;0.10;0.10;;;;;;;;;;6277831;22;20019;-88
2022/05/28 06:16:23;;;;;;;0.10;0.10;;;;;;;;;;6234630;22;20015;-86
2022/05/28 06:18:49;;;;;;;0.10;0.10;;;;;;;;;;6244221;22;20003;-85
2022/05/28 06:21:15;;;;;;;0.10;0.10;;;;;;;;;;6306163;22;20010;-87
2022/05/28 06:23:41;;;;;;;0.10;0.10;;;;;;;;;;6281145;22;20004;-87
2022/05/28 06:26:07;;;;;;;0.10;0.10;;;;;;;;;;6242632;22;20021;-87
2022/05/28 06:28:33;;;;;;;0.10;0.10;;;;;;;;;;6279465;22;20021;-87
2022/05/28 06:31:03;;;;;;;0.10;0.10;;;;;;;;;;6254000;22;20074;-87
2022/05/28 06:33:29;;;;;;;0.10;0.10;;;;;;;;;;6228933;22;20008;-87
2022/05/28 06:35:58;;;;;;;0.10;0.10;;;;;;;;;;6254118;22;20007;-89
2022/05/28 06:38:24;;;;;;;0.20;0.20;;;;;;;;;;6253945;22;20269;-87
2022/05/28 06:40:51;;;;;;;0.10;0.10;;;;;;;;;;6253571;22;20022;-85
2022/05/28 06:43:17;;;;;;;1.00;0.82;;;;;;;;;;6279001;22;20051;-85
2022/05/28 06:45:42;;;;;;;0.10;0.10;;;;;;;;;;6228657;22;20019;-84
2022/05/28 06:48:08;;;;;;;0.10;0.10;;;;;;;;;;6279376;22;20060;-86
2022/05/28 06:53:20;;;;;;;0.15;0.15;;;;;;;;;;6257295;22;20051;-85
2022/05/28 06:55:46;;;;;;;0.35;0.35;;;;;;;;;;6228992;22;20198;-87
2022/05/28 06:58:12;;;;;;;0.17;0.17;;;;;;;;;;6228606;22;20159;-87
2022/05/28 07:00:38;;;;;;;0.20;0.20;;;;;;;;;;6253445;22;20015;-87
2022/05/28 07:03:04;;;;;;;0.10;0.10;;;;;;;;;;6253663;22;20011;-87
2022/05/28 07:05:30;;;;;;;0.10;0.10;;;;;;;;;;6228545;22;20011;-86
2022/05/28 07:07:56;;;;;;;0.25;0.20;;;;;;;;;;6228406;22;20018;-87
2022/05/28 07:10:22;;;;;;;0.10;0.10;;;;;;;;;;6279047;22;20043;-87
2022/05/28 07:12:48;;;;;;;0.10;0.10;;;;;;;;;;6253679;22;20015;-87
2022/05/28 07:15:14;;;;;;;0.22;0.22;;;;;;;;;;6279109;22;20081;-87
2022/05/28 07:17:41;;;;;;;0.10;0.10;;;;;;;;;;6253814;22;20088;-87
2022/05/28 07:20:07;;;;;;;0.22;0.22;;;;;;;;;;6228326;22;20019;-87
2022/05/28 07:22:33;;;;;;;0.20;0.20;;;;;;;;;;6253421;22;20003;-88
2022/05/28 07:24:59;;;;;;;0.35;0.35;;;;;;;;;;6228517;22;20061;-87
2022/05/28 07:27:25;;;;;;;0.10;0.10;;;;;;;;;;6228490;22;20069;-87
2022/05/28 07:29:51;;;;;;;0.10;0.10;;;;;;;;;;6228399;22;20011;-88
2022/05/28 07:32:17;;;;;;;0.10;0.10;;;;;;;;;;6278881;22;20022;-87
2022/05/28 07:34:43;;;;;;;0.30;0.30;;;;;;;;;;6253598;22;20011;-87
2022/05/28 07:37:09;;;;;;;1.45;0.40;;;;;;;;;;6253380;22;20064;-88
2022/05/28 07:39:35;;;;;;;0.10;0.10;;;;;;;;;;6232185;22;20011;-90
2022/05/28 07:42:03;;;;;;;0.10;0.10;;;;;;;;;;6256320;22;20012;-88
2022/05/28 07:44:28;;;;;;;0.30;0.30;;;;;;;;;;6229328;22;20054;-87
2022/05/28 07:46:54;;;;;;;0.10;0.10;;;;;;;;;;6253474;22;20011;-88
2022/05/28 07:49:20;;;;;;;0.10;0.10;;;;;;;;;;6233735;22;20303;-89
2022/05/28 07:51:46;;;;;;;0.10;0.10;;;;;;;;;;6235329;22;20033;-89
2022/05/28 07:54:16;;;;;;;0.10;0.10;;;;;;;;;;6241724;22;20500;-89
2022/05/28 07:56:42;;;;;;;0.10;0.10;;;;;;;;;;6279305;22;20329;-89
2022/05/28 07:59:07;;;;;;;0.17;0.17;;;;;;;;;;6253443;22;20026;-89
2022/05/28 08:01:36;;;;;;;0.10;0.10;;;;;;;;;;6253162;22;20016;-88
2022/05/28 08:04:02;;;;;;;0.22;0.22;;;;;;;;;;6253784;22;20375;-88
2022/05/28 08:06:31;;;;;;;0.38;0.20;;;;;;;;;;6253408;22;20055;-89
2022/05/28 08:08:57;;;;;;;0.10;0.10;;;;;;;;;;6228771;22;20014;-89
2022/05/28 08:11:23;;;;;;;0.10;0.10;;;;;;;;;;6227980;22;20090;-89
2022/05/28 08:13:49;;;;;;;0.10;0.10;;;;;;;;;;6227888;22;20071;-90
2022/05/28 08:16:15;;;;;;;0.10;0.10;;;;;;;;;;6227935;22;20015;-90
2022/05/28 08:18:41;;;;;;;0.30;0.20;;;;;;;;;;6228092;22;20015;-89
2022/05/28 08:23:55;;;;;;;0.10;0.10;;;;;;;;;;6257700;22;20011;-87
2022/05/28 08:26:20;;;;;;;0.40;0.40;;;;;;;;;;6227998;22;20011;-87
2022/05/28 08:28:49;;;;;;;0.10;0.10;;;;;;;;;;6228132;22;20015;-88
2022/05/28 08:31:16;;;;;;;7.13;0.40;;;;;;;;;;6227996;22;20015;-88
2022/05/28 08:33:42;;;;;;;0.10;0.10;;;;;;;;;;6227836;22;20019;-87
2022/05/28 08:36:08;;;;;;;0.10;0.10;;;;;;;;;;6253262;22;20019;-89
2022/05/28 08:38:34;;;;;;;1.75;0.40;;;;;;;;;;6227860;22;20064;-88
2022/05/28 08:41:03;;;;;;;0.10;0.10;;;;;;;;;;6253050;22;20039;-88
2022/05/28 08:43:31;;;;;;;0.20;0.20;;;;;;;;;;6252868;22;20045;-88
2022/05/28 08:45:58;;;;;;;0.30;0.30;;;;;;;;;;6227980;22;20019;-89
2022/05/28 08:48:26;;;;;;;0.52;0.30;;;;;;;;;;6227965;22;20026;-88
2022/05/28 08:51:03;;;;;;;0.10;0.10;;;;;;;;;;6228053;22;20437;-88
2022/05/28 08:53:30;;;;;;;0.10;0.10;;;;;;;;;;6227909;22;20011;-88
2022/05/28 08:55:57;;;;;;;0.10;0.10;;;;;;;;;;6253237;22;20038;-88
2022/05/28 08:58:24;;;;;;;0.10;0.10;;;;;;;;;;6253043;22;20011;-88
2022/05/28 09:00:55;;;;;;;0.10;0.10;;;;;;;;;;6253600;22;20527;-88
2022/05/28 09:03:24;;;;;;;0.10;0.10;;;;;;;;;;6255198;22;20029;-91
2022/05/28 09:05:59;;;;;;;0.55;0.17;;;;;;;;;;6254854;22;20012;-87
2022/05/28 09:08:44;;;;;;;0.10;0.10;;;;;;;;;;6229545;22;20011;-86
2022/05/28 09:11:12;;;;;;;0.10;0.10;;;;;;;;;;6255100;22;20015;-87
2022/05/28 09:13:41;;;;;;;0.10;0.10;;;;;;;;;;6280871;22;20057;-88
2022/05/28 09:16:08;;;;;;;0.10;0.10;;;;;;;;;;6254704;22;20015;-88
2022/05/28 09:18:35;;;;;;;0.10;0.10;;;;;;;;;;6255122;22;20344;-88
2022/05/28 09:21:01;;;;;;;0.10;0.10;;;;;;;;;;6229467;22;20011;-87
2022/05/28 09:23:27;;;;;;;0.10;0.10;;;;;;;;;;6254664;22;20007;-87
2022/05/28 09:25:53;;;;;;;0.10;0.10;;;;;;;;;;6254802;22;20043;-87
2022/05/28 09:28:19;;;;;;;0.20;0.20;;;;;;;;;;6229526;22;20050;-89
2022/05/28 09:30:58;;;;;;;0.10;0.10;;;;;;;;;;6254488;22;20387;-89
2022/05/28 09:33:31;;;;;;;0.10;0.10;;;;;;;;;;6254575;22;20015;-89
2022/05/28 09:35:59;;;;;;;0.10;0.10;;;;;;;;;;6229194;22;20015;-88
2022/05/28 09:38:30;;;;;;;0.10;0.10;;;;;;;;;;6229479;22;20014;-88
2022/05/28 09:41:01;;;;;;;0.10;0.10;;;;;;;;;;6254524;22;20015;-88
2022/05/28 09:43:46;;;;;;;0.10;0.10;;;;;;;;;;6249286;22;20341;-87
2022/05/28 09:46:22;;;;;;;0.10;0.10;;;;;;;;;;6249313;22;20012;-89
2022/05/28 09:49:06;;;;;;;0.20;0.20;;;;;;;;;;6248254;22;20073;-90
2022/05/28 09:51:33;;;;;;;0.20;0.20;;;;;;;;;;6280979;22;20015;-92
2022/05/28 09:54:19;;;;;;;0.10;0.10;;;;;;;;;;6229937;22;20012;-89
2022/05/28 09:56:56;;;;;;;0.10;0.10;;;;;;;;;;6233515;22;20015;-92
2022/05/28 09:59:28;;;;;;;0.10;0.10;;;;;;;;;;6229539;22;20011;-92
2022/05/28 10:01:58;;;;;;;0.10;0.10;;;;;;;;;;6254661;22;20084;-90
2022/05/28 10:04:30;;;;;;;1.75;1.27;;;;;;;;;;6229241;22;20015;-90
2022/05/28 10:07:01;;;;;;;0.13;0.13;;;;;;;;;;6230342;22;20495;-89
2022/05/28 10:09:28;;;;;;;0.10;0.10;;;;;;;;;;6254378;22;20034;-90
2022/05/28 10:12:01;;;;;;;6.80;0.63;;;;;;;;;;6254260;22;20011;-90
2022/05/28 10:14:30;;;;;;;0.10;0.10;;;;;;;;;;6254697;22;20011;-89
2022/05/28 10:16:57;;;;;;;0.40;0.40;;;;;;;;;;6228795;22;20014;-88
2022/05/28 10:19:25;;;;;;;0.10;0.10;;;;;;;;;;6254299;22;20035;-89
2022/05/28 10:21:52;;;;;;;0.10;0.10;;;;;;;;;;6255213;22;20011;-88
2022/05/28 10:24:18;;;;;;;0.10;0.10;;;;;;;;;;6254267;22;20007;-89
2022/05/28 10:26:54;;;;;;;0.10;0.10;;;;;;;;;;6254253;22;20015;-88
2022/05/28 10:29:44;;;;;;;0.30;0.30;;;;;;;;;;6254215;22;20011;-89
2022/05/28 10:32:36;;;;;;;0.10;0.10;;;;;;;;;;6279362;22;20089;-89
2022/05/28 10:35:07;;;;;;;0.10;0.10;;;;;;;;;;6250971;22;20314;-88
2022/05/28 10:37:33;;;;;;;0.10;0.10;;;;;;;;;;6254147;22;20090;-89
2022/05/28 10:40:13;;;;;;;0.10;0.10;;;;;;;;;;6254041;22;20049;-89
2022/05/28 10:42:39;;;;;;;0.10;0.10;;;;;;;;;;6253978;22;20016;-89
2022/05/28 10:45:07;;;;;;;0.10;0.10;;;;;;;;;;6228863;22;20018;-89
2022/05/28 10:47:36;;;;;;;0.10;0.10;;;;;;;;;;6254257;22;20068;-90
2022/05/28 10:50:16;;;;;;;0.10;0.10;;;;;;;;;;6279246;22;20011;-90
2022/05/28 10:52:41;;;;;;;0.10;0.10;;;;;;;;;;6254134;22;20090;-88
2022/05/28 10:55:08;;;;;;;2.13;0.98;;;;;;;;;;6279396;22;20541;-90
2022/05/28 10:57:40;;;;;;;0.88;0.80;;;;;;;;;;6228687;22;20015;-90
2022/05/28 11:00:12;;;;;;;0.10;0.10;;;;;;;;;;6279456;22;20019;-90
2022/05/28 11:02:54;;;;;;;0.30;0.30;;;;;;;;;;6253707;22;20094;-90
2022/05/28 11:05:20;;;;;;;0.10;0.10;;;;;;;;;;6253533;22;20011;-89
2022/05/28 11:07:52;;;;;;;0.10;0.10;;;;;;;;;;6253652;22;20046;-90
2022/05/28 11:10:32;;;;;;;0.17;0.17;;;;;;;;;;6279458;22;20012;-89
2022/05/28 11:13:04;;;;;;;0.10;0.10;;;;;;;;;;6228312;22;20493;-91
2022/05/28 11:15:39;;;;;;;0.10;0.10;;;;;;;;;;6279149;22;20011;-90
2022/05/28 11:18:07;;;;;;;0.80;0.40;;;;;;;;;;6253547;22;20156;-89
2022/05/28 11:20:46;;;;;;;0.13;0.13;;;;;;;;;;6253725;22;20108;-90
2022/05/28 11:23:16;;;;;;;0.10;0.10;;;;;;;;;;6228521;22;20094;-90
2022/05/28 11:26:01;;;;;;;0.10;0.10;;;;;;;;;;6228507;22;20239;-92
2022/05/28 11:28:27;;;;;;;0.10;0.10;;;;;;;;;;6253642;22;20018;-92
2022/05/28 11:30:54;;;;;;;0.10;0.10;;;;;;;;;;6253308;22;20011;-91
2022/05/28 11:33:20;;;;;;;0.10;0.10;;;;;;;;;;6228237;22;20018;-90
2022/05/28 11:35:52;;;;;;;0.20;0.20;;;;;;;;;;6228380;22;20022;-89
2022/05/28 11:38:20;;;;;;;0.10;0.10;;;;;;;;;;6279673;22;20011;-90
2022/05/28 11:40:56;;;;;;;0.30;0.30;;;;;;;;;;6211434;22;21000;-89
2022/05/28 11:43:22;;;;;;;0.20;0.20;;;;;;;;;;6242151;22;20417;-89
2022/05/28 11:45:48;;;;;;;0.10;0.10;;;;;;;;;;6262740;22;20022;-91
2022/05/28 11:48:21;;;;;;;0.10;0.10;;;;;;;;;;6266596;22;20066;-90
2022/05/28 11:53:57;;;;;;;0.10;0.10;;;;;;;;;;6173907;23;20024;-91
2022/05/28 11:56:28;;;;;;;0.20;0.20;;;;;;;;;;6259830;22;20070;-91
2022/05/28 11:59:20;;;;;;;0.10;0.10;;;;;;;;;;6225450;22;20008;-90
2022/05/28 12:01:54;;;;;;;0.10;0.10;;;;;;;;;;6235686;22;20384;-90
2022/05/28 12:04:20;;;;;;;0.10;0.10;;;;;;;;;;6222821;22;20023;-90
2022/05/28 12:06:48;;;;;;;0.10;0.10;;;;;;;;;;6222962;22;20011;-90
2022/05/28 12:09:18;;;;;;;0.10;0.10;;;;;;;;;;6248408;22;20345;-87
2022/05/28 12:11:45;;;;;;;0.22;0.22;;;;;;;;;;6248026;22;20029;-88
2022/05/28 12:14:25;;;;;;;0.10;0.10;;;;;;;;;;6248371;22;20015;-89
2022/05/28 12:17:00;;;;;;;0.10;0.10;;;;;;;;;;6218398;22;20018;-89
2022/05/28 12:19:26;;;;;;;0.10;0.10;;;;;;;;;;6238430;22;20076;-89
2022/05/28 12:21:52;;;;;;;0.10;0.10;;;;;;;;;;6222605;22;20456;-89
2022/05/28 12:24:18;;;;;;;0.10;0.10;;;;;;;;;;6211317;22;20014;-89
2022/05/28 12:26:48;;;;;;;0.10;0.10;;;;;;;;;;6273354;22;20012;-87
2022/05/28 12:29:33;;;;;;;0.10;0.10;;;;;;;;;;6249025;22;20012;-88
2022/05/28 12:32:29;;;;;;;0.10;0.10;;;;;;;;;;6247671;22;20008;-88
2022/05/28 12:34:55;;;;;;;0.20;0.20;;;;;;;;;;6212678;22;20031;-88
2022/05/28 12:37:25;;;;;;;0.10;0.10;;;;;;;;;;6238968;22;20065;-88
2022/05/28 12:40:20;;;;;;;0.10;0.10;;;;;;;;;;6252368;22;20087;-89
2022/05/28 12:42:47;;;;;;;0.10;0.10;;;;;;;;;;6252593;22;20011;-88
2022/05/28 12:45:13;;;;;;;0.10;0.10;;;;;;;;;;6255002;22;20011;-89
2022/05/28 12:47:39;;;;;;;0.10;0.10;;;;;;;;;;6254630;22;20475;-89
2022/05/28 12:50:08;;;;;;;0.20;0.20;;;;;;;;;;6230011;22;20016;-89
2022/05/28 12:52:53;;;;;;;0.40;0.40;;;;;;;;;;6280330;22;20015;-90
2022/05/28 12:55:29;;;;;;;0.30;0.30;;;;;;;;;;6254716;22;20050;-91
2022/05/28 12:58:01;;;;;;;0.20;0.20;;;;;;;;;;6230070;22;20018;-90
2022/05/28 13:00:28;;;;;;;0.10;0.10;;;;;;;;;;6229783;22;20011;-88
2022/05/28 13:02:54;;;;;;;0.10;0.10;;;;;;;;;;6229580;22;20011;-93
2022/05/28 13:05:40;;;;;;;0.10;0.10;;;;;;;;;;6255299;22;20015;-88
2022/05/28 13:08:10;;;;;;;2.03;0.85;;;;;;;;;;6229759;22;20015;-89
2022/05/28 13:10:36;;;;;;;0.30;0.30;;;;;;;;;;6254635;22;20340;-90
2022/05/28 13:13:21;;;;;;;1.65;0.40;;;;;;;;;;6229483;22;20344;-90
2022/05/28 13:15:50;;;;;;;0.10;0.10;;;;;;;;;;6254813;22;20011;-89
2022/05/28 13:18:35;;;;;;;2.75;1.40;;;;;;;;;;6254709;22;20098;-88
2022/05/28 13:21:37;;;;;;;0.65;0.65;;;;;;;;;;6254791;22;20022;-93
2022/05/28 13:24:03;;;;;;;0.13;0.13;;;;;;;;;;6254631;22;20007;-89
2022/05/28 13:26:36;;;;;;;0.10;0.10;;;;;;;;;;6254496;22;20090;-86
2022/05/28 13:29:15;;;;;;;0.10;0.10;;;;;;;;;;6254956;22;20013;-92
2022/05/28 13:31:42;;;;;;;0.10;0.10;;;;;;;;;;6280327;22;20047;-89
2022/05/28 13:34:18;;;;;;;0.10;0.10;;;;;;;;;;6254554;22;20332;-88
2022/05/28 13:36:44;;;;;;;0.10;0.10;;;;;;;;;;6254903;22;20183;-89
2022/05/28 13:39:10;;;;;;;1.45;1.33;;;;;;;;;;6254639;22;20364;-88
2022/05/28 13:41:39;;;;;;;0.10;0.10;;;;;;;;;;6228774;22;20011;-87
2022/05/28 13:44:08;;;;;;;0.10;0.10;;;;;;;;;;6254953;22;20034;-89
2022/05/28 13:46:34;;;;;;;0.20;0.20;;;;;;;;;;6228967;22;20082;-88
2022/05/28 13:49:01;;;;;;;0.10;0.10;;;;;;;;;;6229210;22;20068;-89
2022/05/28 13:51:28;;;;;;;0.10;0.10;;;;;;;;;;6229075;22;20079;-88
2022/05/28 13:54:03;;;;;;;0.73;0.25;;;;;;;;;;6254650;22;20015;-88
2022/05/28 13:56:32;;;;;;;0.10;0.10;;;;;;;;;;6255201;22;20054;-90
2022/05/28 13:58:59;;;;;;;0.10;0.10;;;;;;;;;;6232339;22;20015;-92
2022/05/28 14:01:27;;;;;;;0.20;0.20;;;;;;;;;;6241271;22;20018;-95
2022/05/28 14:03:56;;;;;;;0.30;0.30;;;;;;;;;;6230775;22;20089;-92
2022/05/28 14:06:24;;;;;;;0.10;0.10;;;;;;;;;;6232899;22;20011;-95
2022/05/28 14:08:53;;;;;;;0.20;0.20;;;;;;;;;;6256959;22;20011;-96
2022/05/28 14:14:47;;;;;;;0.10;0.10;;;;;;;;;;6312183;22;20068;-91
2022/05/28 14:17:28;;;;;;;0.10;0.10;;;;;;;;;;6254366;22;20396;-90
2022/05/28 14:19:56;;;;;;;0.10;0.10;;;;;;;;;;6228739;22;20093;-90
2022/05/28 14:22:22;;;;;;;0.10;0.10;;;;;;;;;;6229689;22;20086;-96
2022/05/28 14:24:48;;;;;;;0.10;0.10;;;;;;;;;;6255171;22;20007;-94
2022/05/28 14:27:30;;;;;;;0.10;0.10;;;;;;;;;;6255400;22;20042;-95
2022/05/28 14:29:59;;;;;;;0.10;0.10;;;;;;;;;;6280049;22;20019;-90
2022/05/28 14:32:36;;;;;;;0.10;0.10;;;;;;;;;;6253939;22;20024;-90
2022/05/28 14:35:12;;;;;;;0.10;0.10;;;;;;;;;;6253907;22;20015;-90
2022/05/28 14:37:38;;;;;;;0.10;0.10;;;;;;;;;;6228482;22;20076;-90
2022/05/28 14:40:05;;;;;;;0.30;0.30;;;;;;;;;;6228280;22;20007;-89
2022/05/28 14:42:39;;;;;;;0.10;0.10;;;;;;;;;;6228619;22;20026;-92
2022/05/28 14:45:10;;;;;;;0.10;0.10;;;;;;;;;;6229055;22;20013;-93
2022/05/28 14:47:36;;;;;;;0.10;0.10;;;;;;;;;;6229277;22;20011;-92
2022/05/28 14:50:04;;;;;;;0.10;0.10;;;;;;;;;;6254955;22;20017;-92
2022/05/28 14:52:48;;;;;;;0.10;0.10;;;;;;;;;;6229955;22;20023;-94
2022/05/28 14:55:47;;;;;;;0.10;0.10;;;;;;;;;;6257420;22;20011;-92
2022/05/28 14:58:26;;;;;;;0.30;0.30;;;;;;;;;;6281198;22;20065;-92
2022/05/28 15:01:07;;;;;;;0.10;0.10;;;;;;;;;;6269134;22;20026;-93
2022/05/28 15:03:34;;;;;;;0.10;0.10;;;;;;;;;;6305671;22;20019;-92
2022/05/28 15:06:13;;;;;;;0.10;0.10;;;;;;;;;;6253808;22;20023;-93